Time;durP1;ratioP1;P1;durP2;ratioP2;P2;SDS_P1;SDS_P2;PMS_P1;PMS_P2;Temp;Humidity;BMP_temperature;BMP_pressure;BME280_temperature;BME280_humidity;BME280_pressure;Samples;Min_cycle;Max_cycle;Signal;HPM_P1;HPM_P2
2022/10/08 00:01:07;;;;;;;28.80;11.98;;;;;;;10.21;100.00;98671.41;2633165;28;20051;-84
2022/10/08 00:02:23;;;;;;;32.55;12.15;;;;;;;10.36;100.00;98675.44;2633891;28;20079;-84
2022/10/08 00:03:42;;;;;;;26.58;11.65;;;;;;;10.39;100.00;98668.38;2632289;28;20101;-84
2022/10/08 00:04:57;;;;;;;30.80;11.90;;;;;;;10.42;100.00;98670.97;2634766;28;20566;-84
2022/10/08 00:06:16;;;;;;;26.50;11.52;;;;;;;10.50;100.00;98662.06;2635260;28;20262;-84
2022/10/08 00:07:32;;;;;;;33.25;11.63;;;;;;;10.63;100.00;98665.25;2632735;28;20044;-84
2022/10/08 00:08:51;;;;;;;31.65;12.57;;;;;;;10.56;100.00;98659.31;2632092;28;20056;-86
2022/10/08 00:10:07;;;;;;;41.65;12.55;;;;;;;10.54;100.00;98667.19;2634381;28;20392;-83
2022/10/08 00:11:29;;;;;;;33.05;12.13;;;;;;;10.56;100.00;98665.38;2634239;28;20206;-86
2022/10/08 00:12:44;;;;;;;30.25;11.68;;;;;;;10.37;100.00;98659.69;2633380;28;20113;-85
2022/10/08 00:14:01;;;;;;;42.00;12.75;;;;;;;10.52;100.00;98663.75;2632284;28;20075;-84
2022/10/08 00:15:17;;;;;;;35.20;11.75;;;;;;;10.52;100.00;98660.25;2635638;28;20047;-84
2022/10/08 00:16:35;;;;;;;38.60;12.52;;;;;;;10.50;100.00;98657.69;2634662;28;20150;-84
2022/10/08 00:17:51;;;;;;;37.75;11.80;;;;;;;10.33;100.00;98663.28;2632661;28;20048;-88
2022/10/08 00:19:11;;;;;;;46.95;13.23;;;;;;;10.55;100.00;98660.22;2632606;28;20059;-84
2022/10/08 00:20:27;;;;;;;48.45;13.50;;;;;;;10.63;100.00;98663.47;2633139;28;20055;-84
2022/10/08 00:21:44;;;;;;;60.97;13.55;;;;;;;10.65;100.00;98663.44;2635679;28;20055;-84
2022/10/08 00:23:00;;;;;;;39.80;11.85;;;;;;;10.36;100.00;98662.38;2634252;28;20496;-84
2022/10/08 00:24:17;;;;;;;53.53;13.18;;;;;;;10.29;100.00;98659.88;2632338;28;20055;-84
2022/10/08 00:25:39;;;;;;;76.38;13.65;;;;;;;10.40;100.00;98649.16;2634161;28;20046;-86
2022/10/08 00:26:54;;;;;;;39.15;12.77;;;;;;;10.37;100.00;98654.47;2634702;28;20518;-85
2022/10/08 00:28:12;;;;;;;51.90;13.63;;;;;;;10.58;100.00;98655.72;2634448;28;20048;-85
2022/10/08 00:29:27;;;;;;;50.97;14.15;;;;;;;10.63;100.00;98660.00;2635305;28;20126;-84
2022/10/08 00:30:44;;;;;;;60.20;14.23;;;;;;;10.68;100.00;98652.91;2633766;28;20650;-85
2022/10/08 00:32:00;;;;;;;53.72;12.77;;;;;;;10.48;100.00;98643.78;2635007;28;20055;-85
2022/10/08 00:33:15;;;;;;;34.10;12.48;;;;;;;10.40;100.00;98650.91;2634966;28;20056;-84
2022/10/08 00:34:31;;;;;;;47.97;13.50;;;;;;;10.40;100.00;98646.53;2634632;28;20075;-83
2022/10/08 00:35:46;;;;;;;70.15;14.20;;;;;;;10.67;100.00;98649.41;2634933;28;20449;-83
2022/10/08 00:37:02;;;;;;;57.08;13.20;;;;;;;10.42;100.00;98646.53;2634941;28;20047;-83
2022/10/08 00:38:18;;;;;;;59.08;12.60;;;;;;;10.39;100.00;98649.19;2634554;28;20108;-83
2022/10/08 00:39:33;;;;;;;60.35;11.98;;;;;;;10.40;100.00;98638.69;2633466;28;20142;-85
2022/10/08 00:40:49;;;;;;;68.88;13.05;;;;;;;10.21;100.00;98640.03;2632390;28;20051;-83
2022/10/08 00:42:05;;;;;;;55.30;12.45;;;;;;;10.33;100.00;98644.97;2631905;28;20414;-86
2022/10/08 00:43:42;;;;;;;52.03;12.82;;;;;;;10.38;100.00;98640.47;2634540;28;20051;-85
2022/10/08 00:44:59;;;;;;;59.00;13.65;;;;;;;10.38;100.00;98642.25;2635754;28;20134;-84
2022/10/08 00:46:34;;;;;;;38.80;11.73;;;;;;;10.35;100.00;98635.31;2632550;28;20129;-84
2022/10/08 00:47:55;;;;;;;59.88;13.02;;;;;;;10.49;100.00;98635.03;2632778;28;20048;-84
2022/10/08 00:49:19;;;;;;;64.57;13.25;;;;;;;10.58;100.00;98634.78;2635535;28;20063;-84
2022/10/08 00:50:35;;;;;;;49.50;12.30;;;;;;;10.45;100.00;98635.97;2635087;28;20452;-85
2022/10/08 00:51:54;;;;;;;45.63;12.25;;;;;;;10.25;100.00;98637.31;2634120;28;20120;-85
2022/10/08 00:53:10;;;;;;;80.00;13.45;;;;;;;10.36;100.00;98633.56;2632596;28;20710;-86
2022/10/08 00:54:26;;;;;;;26.15;12.48;;;;;;;10.44;100.00;98629.03;2632320;28;20048;-84
2022/10/08 00:55:42;;;;;;;60.28;13.60;;;;;;;10.48;100.00;98630.69;2634956;28;20071;-83
2022/10/08 00:56:57;;;;;;;32.65;11.23;;;;;;;10.36;100.00;98623.94;2632811;28;20097;-86
2022/10/08 00:58:18;;;;;;;42.42;11.85;;;;;;;10.27;100.00;98622.41;2634798;28;20063;-84
2022/10/08 00:59:35;;;;;;;52.05;12.60;;;;;;;10.41;100.00;98626.50;2631447;28;20392;-84
2022/10/08 01:00:50;;;;;;;60.30;13.63;;;;;;;10.43;100.00;98627.31;2631885;28;20122;-84
2022/10/08 01:02:11;;;;;;;42.13;11.45;;;;;;;10.49;100.00;98624.56;2632727;28;20483;-85
2022/10/08 01:03:27;;;;;;;78.43;12.48;;;;;;;10.51;100.00;98627.13;2632835;28;20048;-85
2022/10/08 01:04:43;;;;;;;38.72;12.02;;;;;;;10.50;100.00;98628.91;2623531;28;20060;-85
2022/10/08 01:06:18;;;;;;;59.92;12.90;;;;;;;10.55;100.00;98631.41;2625885;28;20438;-85
2022/10/08 01:07:51;;;;;;;38.35;12.45;;;;;;;10.30;100.00;98624.13;2631620;28;20122;-86
2022/10/08 01:09:35;;;;;;;33.42;10.95;;;;;;;10.18;100.00;98626.13;2631600;28;20444;-85
2022/10/08 01:11:03;;;;;;;57.65;11.68;;;;;;;10.11;100.00;98628.91;2633213;28;20495;-84
2022/10/08 01:12:31;;;;;;;50.55;12.52;;;;;;;10.23;100.00;98626.03;2631680;28;20363;-84
2022/10/08 01:13:56;;;;;;;37.20;11.93;;;;;;;10.02;100.00;98627.38;2632682;28;20063;-85
2022/10/08 01:15:22;;;;;;;69.22;15.48;;;;;;;9.95;100.00;98620.53;2631812;28;20165;-86
2022/10/08 01:16:45;;;;;;;28.90;11.98;;;;;;;10.12;100.00;98621.00;2632489;28;20506;-85
2022/10/08 01:18:27;;;;;;;45.72;13.25;;;;;;;10.15;100.00;98620.09;2632574;28;20044;-84
2022/10/08 01:20:20;;;;;;;38.33;11.50;;;;;;;10.10;100.00;98617.56;2633166;28;20081;-85
2022/10/08 01:22:01;;;;;;;45.38;11.63;;;;;;;9.87;100.00;98613.75;2632875;28;20113;-84
2022/10/08 01:23:52;;;;;;;37.15;11.30;;;;;;;9.78;100.00;98613.94;2632930;28;20569;-84
2022/10/08 01:25:33;;;;;;;47.50;11.30;;;;;;;10.18;100.00;98614.78;2628179;28;20414;-89
2022/10/08 01:27:01;;;;;;;25.83;10.82;;;;;;;10.16;100.00;98608.72;2634402;28;20043;-84
2022/10/08 01:28:41;;;;;;;61.10;12.65;;;;;;;9.86;100.00;98605.94;2633519;28;20059;-84
2022/10/08 01:30:01;;;;;;;34.42;10.40;;;;;;;9.75;100.00;98608.78;2631562;28;20052;-83
2022/10/08 01:31:26;;;;;;;31.05;10.52;;;;;;;9.89;100.00;98605.84;2633173;28;20589;-84
2022/10/08 01:33:01;;;;;;;45.15;10.23;;;;;;;9.80;100.00;98606.91;2632778;28;20138;-83
2022/10/08 01:34:22;;;;;;;43.40;11.13;;;;;;;9.89;100.00;98605.84;2631736;28;20051;-85
2022/10/08 01:35:44;;;;;;;34.60;10.60;;;;;;;10.03;100.00;98609.00;2633988;28;20048;-82
2022/10/08 01:37:01;;;;;;;22.85;10.02;;;;;;;10.16;100.00;98608.72;2633160;28;20056;-84
2022/10/08 01:38:19;;;;;;;57.40;10.80;;;;;;;10.27;100.00;98606.72;2631967;28;20052;-85
2022/10/08 01:39:38;;;;;;;39.85;10.60;;;;;;;10.32;100.00;98611.84;2633874;28;20052;-84
2022/10/08 01:40:58;;;;;;;31.52;10.02;;;;;;;10.03;100.00;98610.78;2631928;28;20134;-89
2022/10/08 01:42:16;;;;;;;40.00;10.20;;;;;;;10.18;100.00;98605.19;2631125;28;20044;-84
2022/10/08 01:43:36;;;;;;;24.52;9.23;;;;;;;10.16;100.00;98603.50;2631432;28;20059;-84
2022/10/08 01:44:59;;;;;;;33.85;10.48;;;;;;;10.30;100.00;98604.03;2633318;28;20139;-84
2022/10/08 01:46:25;;;;;;;37.08;10.77;;;;;;;10.29;100.00;98604.91;2631565;28;20052;-84
2022/10/08 01:47:44;;;;;;;47.92;11.20;;;;;;;9.83;100.00;98599.00;2631737;28;20085;-85
2022/10/08 01:49:10;;;;;;;47.40;10.93;;;;;;;9.91;100.00;98603.22;2633141;28;20215;-84
2022/10/08 01:50:32;;;;;;;84.57;12.07;;;;;;;10.11;100.00;98595.75;2631606;28;20521;-84
2022/10/08 01:52:09;;;;;;;66.90;12.13;;;;;;;10.22;100.00;98598.13;2630739;28;20140;-84
2022/10/08 01:53:38;;;;;;;73.53;13.52;;;;;;;10.11;100.00;98606.22;2622375;28;20535;-83
2022/10/08 01:55:00;;;;;;;84.50;12.93;;;;;;;10.07;100.00;98607.19;2628761;28;20325;-86
2022/10/08 01:56:20;;;;;;;65.60;13.02;;;;;;;10.02;100.00;98617.75;2635169;28;20088;-87
2022/10/08 01:57:38;;;;;;;95.50;15.07;;;;;;;10.04;100.00;98613.34;2632700;28;20078;-83
2022/10/08 01:59:00;;;;;;;63.53;12.98;;;;;;;10.07;100.00;98608.97;2631495;28;20052;-85
2022/10/08 02:00:16;;;;;;;;;;;;;;;9.89;100.00;98605.84;2632697;28;20059;-84
2022/10/08 02:01:37;;;;;;;63.05;12.63;;;;;;;9.86;100.00;98600.69;2632486;28;19959;-83
2022/10/08 02:02:54;;;;;;;40.50;12.15;;;;;;;9.90;100.00;98602.34;2631062;28;20080;-83
2022/10/08 02:05:49;;;;;;;52.38;13.20;;;;;;;9.80;100.00;98598.22;2631404;28;20071;-85
2022/10/08 02:07:14;;;;;;;54.50;13.32;;;;;;;10.06;100.00;98596.75;2633131;28;20079;-85
2022/10/08 02:08:30;;;;;;;75.22;13.43;;;;;;;10.15;100.00;98596.53;2632952;28;20537;-86
2022/10/08 02:10:10;;;;;;;31.75;11.43;;;;;;;10.09;100.00;98597.53;2631216;28;20100;-84
2022/10/08 02:11:26;;;;;;;53.72;12.05;;;;;;;10.01;100.00;98595.13;2631428;28;20051;-88
2022/10/08 02:12:43;;;;;;;52.88;12.00;;;;;;;10.10;100.00;98598.41;2633923;28;20517;-83
2022/10/08 02:13:58;;;;;;;45.17;12.32;;;;;;;10.14;100.00;98594.81;2634474;28;20044;-85
2022/10/08 02:15:21;;;;;;;68.47;11.82;;;;;;;9.92;100.00;98595.34;2633542;28;20056;-83
2022/10/08 02:16:45;;;;;;;39.53;10.85;;;;;;;10.11;100.00;98594.91;2633373;28;20116;-83
2022/10/08 02:18:17;;;;;;;56.65;11.43;;;;;;;10.23;100.00;98586.75;2630793;28;20478;-84
2022/10/08 02:19:38;;;;;;;42.03;13.50;;;;;;;10.20;100.00;98586.84;2632849;28;20127;-83
2022/10/08 02:21:18;;;;;;;43.00;12.15;;;;;;;10.18;100.00;98584.25;2631272;28;20063;-84
2022/10/08 02:22:39;;;;;;;38.83;11.38;;;;;;;10.24;100.00;98587.59;2631865;28;20048;-84
2022/10/08 02:24:12;;;;;;;38.17;11.15;;;;;;;10.31;100.00;98586.56;2630591;28;20479;-85
2022/10/08 02:25:39;;;;;;;27.02;10.73;;;;;;;10.24;100.00;98585.88;2630663;28;20039;-86
2022/10/08 02:26:59;;;;;;;45.13;11.25;;;;;;;10.28;100.00;98584.88;2631382;28;20051;-84
2022/10/08 02:28:19;;;;;;;45.53;10.52;;;;;;;10.37;100.00;98590.81;2631682;28;20100;-84
2022/10/08 02:29:53;;;;;;;45.50;10.90;;;;;;;10.42;100.00;98586.34;2634222;28;20474;-84
2022/10/08 02:31:36;;;;;;;53.83;10.90;;;;;;;10.30;100.00;98580.47;2631945;28;20139;-84
2022/10/08 02:33:02;;;;;;;47.42;10.80;;;;;;;10.13;100.00;98585.25;2634213;28;20426;-85
2022/10/08 02:34:23;;;;;;;21.48;10.90;;;;;;;10.22;100.00;98582.44;2630485;28;21085;-84
2022/10/08 02:35:52;;;;;;;39.78;10.60;;;;;;;10.04;100.00;98586.34;2631605;28;20081;-85
2022/10/08 02:37:20;;;;;;;59.17;11.38;;;;;;;9.99;100.00;98589.06;2632250;28;20173;-89
2022/10/08 02:38:45;;;;;;;48.47;11.40;;;;;;;10.10;100.00;98594.03;2631919;28;20086;-84
2022/10/08 02:40:07;;;;;;;32.13;11.80;;;;;;;10.12;100.00;98594.00;2621766;28;20048;-84
2022/10/08 02:41:29;;;;;;;57.72;12.07;;;;;;;10.16;100.00;98598.25;2625827;28;20383;-84
2022/10/08 02:42:51;;;;;;;34.38;10.35;;;;;;;10.21;100.00;98593.78;2630830;28;20058;-83
2022/10/08 02:44:13;;;;;;;17.80;10.43;;;;;;;10.41;100.00;98593.34;2619886;28;20058;-84
2022/10/08 02:45:34;;;;;;;25.93;11.40;;;;;;;10.47;100.00;98594.06;2628595;28;20056;-85
2022/10/08 02:46:55;;;;;;;23.23;10.98;;;;;;;10.38;100.00;98587.28;2630701;28;20552;-85
2022/10/08 02:48:17;;;;;;;55.97;12.02;;;;;;;10.50;100.00;98580.91;2630648;28;20503;-84
2022/10/08 02:49:42;;;;;;;75.88;12.85;;;;;;;10.38;100.00;98590.75;2632612;28;20362;-85
2022/10/08 02:51:09;;;;;;;89.85;12.32;;;;;;;10.34;100.00;98588.25;2630607;28;20441;-85
2022/10/08 02:52:29;;;;;;;64.85;11.50;;;;;;;10.33;100.00;98587.41;2632409;28;20452;-84
2022/10/08 02:53:47;;;;;;;55.08;12.20;;;;;;;10.35;100.00;98596.06;2630948;28;20950;-84
2022/10/08 02:55:26;;;;;;;91.40;12.77;;;;;;;10.31;100.00;98597.88;2634488;28;20414;-83
2022/10/08 02:56:51;;;;;;;82.72;12.07;;;;;;;10.30;100.00;98592.72;2630665;28;20062;-84
2022/10/08 02:58:10;;;;;;;59.22;12.68;;;;;;;10.35;100.00;98592.59;2630280;28;20048;-84
2022/10/08 02:59:26;;;;;;;69.70;12.35;;;;;;;10.37;100.00;98598.66;2633252;28;20083;-85
2022/10/08 03:01:05;;;;;;;73.22;12.65;;;;;;;10.35;100.00;98600.44;2631037;28;20059;-84
2022/10/08 03:02:28;;;;;;;42.88;12.40;;;;;;;10.34;100.00;98599.56;2632660;28;20062;-85
2022/10/08 03:03:52;;;;;;;26.92;10.13;;;;;;;10.23;100.00;98594.63;2633322;28;20401;-84
2022/10/08 03:05:16;;;;;;;24.35;11.60;;;;;;;10.15;100.00;98594.81;2630906;28;20051;-84
2022/10/08 03:06:32;;;;;;;51.85;13.52;;;;;;;10.24;100.00;98593.72;2631624;28;20059;-85
2022/10/08 03:07:50;;;;;;;28.95;12.23;;;;;;;10.02;100.00;98593.38;2631037;28;20063;-85
2022/10/08 03:09:09;;;;;;;24.10;11.40;;;;;;;10.03;100.00;98590.69;2632662;28;20048;-84
2022/10/08 03:10:27;;;;;;;23.15;11.55;;;;;;;10.01;100.00;98591.66;2632518;28;20348;-85
2022/10/08 03:11:43;;;;;;;25.00;12.30;;;;;;;10.13;100.00;98586.13;2632349;28;20474;-85
2022/10/08 03:13:01;;;;;;;37.88;12.05;;;;;;;10.22;100.00;98577.19;2632764;28;20047;-84
2022/10/08 03:14:19;;;;;;;20.60;12.57;;;;;;;10.29;100.00;98583.16;2631193;28;20479;-85
2022/10/08 03:15:36;;;;;;;18.80;11.18;;;;;;;10.08;100.00;98582.75;2632021;28;20051;-84
2022/10/08 03:16:53;;;;;;;20.10;10.63;;;;;;;9.91;100.00;98582.28;2632205;28;20055;-85
2022/10/08 03:18:11;;;;;;;25.52;11.48;;;;;;;9.93;100.00;98575.25;2632696;28;20044;-87
2022/10/08 03:19:26;;;;;;;33.22;12.05;;;;;;;10.00;100.00;98577.69;2632368;28;20044;-84
2022/10/08 03:20:45;;;;;;;24.15;11.65;;;;;;;10.13;100.00;98580.03;2632527;28;20802;-86
2022/10/08 03:22:02;;;;;;;21.23;10.63;;;;;;;9.90;100.00;98578.81;2631476;28;20047;-85
2022/10/08 03:23:18;;;;;;;18.58;11.50;;;;;;;9.96;100.00;98585.66;2630708;28;20048;-86
2022/10/08 03:24:34;;;;;;;19.13;11.68;;;;;;;9.82;100.00;98580.75;2632751;28;20075;-85
2022/10/08 03:25:50;;;;;;;26.83;12.05;;;;;;;9.83;100.00;98579.84;2631025;28;20094;-85
2022/10/08 03:27:06;;;;;;;19.35;11.80;;;;;;;10.04;100.00;98584.56;2631528;28;20628;-87
2022/10/08 03:28:21;;;;;;;20.17;11.52;;;;;;;10.14;100.00;98580.00;2631162;28;20040;-86
2022/10/08 03:29:37;;;;;;;20.48;11.77;;;;;;;10.01;100.00;98582.03;2633306;28;20141;-85
2022/10/08 03:30:52;;;;;;;19.10;11.85;;;;;;;9.82;100.00;98585.97;2630948;28;20410;-84
2022/10/08 03:32:08;;;;;;;19.98;11.50;;;;;;;9.97;100.00;98588.25;2634193;28;20055;-86
2022/10/08 03:33:23;;;;;;;21.88;11.27;;;;;;;9.96;100.00;98583.03;2632391;28;20158;-85
2022/10/08 03:34:39;;;;;;;23.10;10.43;;;;;;;9.95;100.00;98587.41;2631790;28;20837;-83
2022/10/08 03:35:54;;;;;;;28.55;10.90;;;;;;;9.96;100.00;98586.53;2632562;28;20052;-85
2022/10/08 03:37:10;;;;;;;20.55;11.10;;;;;;;9.87;100.00;98589.34;2631740;28;20059;-90
2022/10/08 03:38:26;;;;;;;106.95;15.43;;;;;;;9.97;100.00;98583.00;2630304;28;20563;-84
2022/10/08 03:39:42;;;;;;;20.85;12.48;;;;;;;10.10;100.00;98582.72;2630429;28;20051;-85
2022/10/08 03:40:58;;;;;;;23.83;12.15;;;;;;;9.89;100.00;98583.19;2631313;28;20063;-85
2022/10/08 03:42:14;;;;;;;59.25;13.10;;;;;;;10.01;100.00;98582.03;2631354;28;20078;-85
2022/10/08 03:43:32;;;;;;;31.73;13.77;;;;;;;9.80;100.00;98574.69;2630864;28;20048;-84
2022/10/08 03:44:47;;;;;;;61.92;14.07;;;;;;;9.97;100.00;98588.25;2632945;28;20058;-85
2022/10/08 03:46:03;;;;;;;53.83;12.65;;;;;;;10.06;100.00;98587.16;2630585;28;20043;-84
2022/10/08 03:47:19;;;;;;;103.72;14.57;;;;;;;10.04;100.00;98581.94;2632763;28;20059;-86
2022/10/08 03:48:34;;;;;;;104.18;15.25;;;;;;;10.02;100.00;98585.53;2631658;28;20489;-84
2022/10/08 03:49:50;;;;;;;154.13;16.60;;;;;;;10.13;100.00;98580.03;2629993;28;20043;-87
2022/10/08 03:51:09;;;;;;;141.98;16.50;;;;;;;10.15;100.00;98581.72;2632071;28;20052;-86
2022/10/08 03:52:25;;;;;;;121.38;14.38;;;;;;;10.12;100.00;98583.53;2632367;28;20056;-84
2022/10/08 03:53:42;;;;;;;124.50;17.23;;;;;;;10.14;100.00;98582.63;2633008;28;20047;-85
2022/10/08 03:54:58;;;;;;;34.10;12.15;;;;;;;10.11;100.00;98582.66;2632392;28;20455;-85
2022/10/08 03:56:17;;;;;;;32.03;12.50;;;;;;;10.12;100.00;98580.94;2631241;28;20055;-84
2022/10/08 03:57:32;;;;;;;32.00;12.02;;;;;;;10.03;100.00;98582.84;2631450;28;20456;-88
2022/10/08 03:58:55;;;;;;;21.33;12.38;;;;;;;10.20;100.00;98579.00;2632669;28;20044;-86
2022/10/08 04:00:11;;;;;;;18.75;12.45;;;;;;;10.28;100.00;98579.66;2632335;28;20436;-84
2022/10/08 04:01:27;;;;;;;18.13;11.15;;;;;;;10.26;100.00;98577.97;2633108;28;20049;-85
2022/10/08 04:02:48;;;;;;;17.25;10.73;;;;;;;10.36;100.00;98581.22;2632685;28;20059;-86
2022/10/08 04:04:03;;;;;;;18.02;11.27;;;;;;;10.41;100.00;98579.38;2630498;28;20044;-85
2022/10/08 04:05:19;;;;;;;17.45;10.43;;;;;;;10.30;100.00;98585.69;2630902;28;20125;-84
2022/10/08 04:06:34;;;;;;;22.00;10.90;;;;;;;10.38;100.00;98589.91;2632250;28;20184;-86
2022/10/08 04:07:50;;;;;;;28.35;10.20;;;;;;;10.33;100.00;98590.00;2630133;28;20075;-89
2022/10/08 04:09:05;;;;;;;15.82;9.93;;;;;;;10.21;100.00;98583.34;2630502;28;20054;-85
2022/10/08 04:10:21;;;;;;;17.15;10.65;;;;;;;10.21;100.00;98579.84;2632257;28;20090;-85
2022/10/08 04:11:36;;;;;;;20.45;10.23;;;;;;;10.00;100.00;98582.94;2630893;28;20525;-85
2022/10/08 04:12:53;;;;;;;21.00;10.43;;;;;;;9.90;100.00;98576.19;2630896;28;20056;-84
2022/10/08 04:14:08;;;;;;;17.10;10.73;;;;;;;9.95;100.00;98581.31;2630551;28;20049;-84
2022/10/08 04:15:24;;;;;;;16.65;10.68;;;;;;;9.70;100.00;98574.91;2630537;28;20063;-85
2022/10/08 04:16:39;;;;;;;16.08;10.43;;;;;;;9.69;100.00;98575.78;2632145;28;20100;-84
2022/10/08 04:17:55;;;;;;;16.33;10.70;;;;;;;9.99;100.00;98575.13;2621089;28;20473;-84
2022/10/08 04:19:11;;;;;;;15.23;9.80;;;;;;;10.15;100.00;98575.63;2624048;28;20324;-84
2022/10/08 04:20:26;;;;;;;16.23;10.20;;;;;;;10.22;100.00;98586.78;2630864;28;20051;-85
2022/10/08 04:21:42;;;;;;;17.83;10.50;;;;;;;10.26;100.00;98584.06;2630071;28;20044;-84
2022/10/08 04:22:58;;;;;;;16.17;10.07;;;;;;;10.10;100.00;98583.56;2630552;28;20078;-86
2022/10/08 04:24:14;;;;;;;16.73;10.10;;;;;;;9.82;100.00;98584.22;2631597;28;20047;-84
2022/10/08 04:25:29;;;;;;;18.75;10.35;;;;;;;9.94;100.00;98587.44;2632162;28;20044;-84
2022/10/08 04:26:46;;;;;;;15.68;10.00;;;;;;;9.98;100.00;98576.88;2633040;28;20124;-84
2022/10/08 04:28:05;;;;;;;24.05;10.85;;;;;;;10.00;100.00;98584.69;2630706;28;20056;-84
2022/10/08 04:29:20;;;;;;;19.13;9.73;;;;;;;9.99;100.00;98589.06;2630411;28;20599;-88
2022/10/08 04:30:36;;;;;;;15.88;9.90;;;;;;;9.82;100.00;98576.38;2632130;28;20052;-86
2022/10/08 04:31:51;;;;;;;16.55;9.85;;;;;;;9.73;100.00;98576.59;2628731;28;20051;-86
2022/10/08 04:33:07;;;;;;;17.75;10.45;;;;;;;9.77;100.00;98578.22;2631254;28;20104;-84
2022/10/08 04:34:22;;;;;;;16.65;10.52;;;;;;;9.81;100.00;98571.19;2634271;28;20512;-85
2022/10/08 04:35:38;;;;;;;21.65;11.38;;;;;;;9.95;100.00;98569.13;2632487;28;20178;-85
2022/10/08 04:36:53;;;;;;;16.90;10.43;;;;;;;10.05;100.00;98569.75;2632714;28;20104;-85
2022/10/08 04:38:09;;;;;;;15.15;9.70;;;;;;;10.15;100.00;98571.25;2632773;28;20044;-84
2022/10/08 04:39:25;;;;;;;15.68;9.88;;;;;;;10.17;100.00;98572.06;2622375;28;20121;-85
2022/10/08 04:40:40;;;;;;;17.98;10.43;;;;;;;10.21;100.00;98567.63;2625348;28;20101;-84
2022/10/08 04:41:56;;;;;;;21.80;10.32;;;;;;;10.25;100.00;98569.28;2632423;28;20048;-85
2022/10/08 04:43:12;;;;;;;17.88;10.55;;;;;;;10.29;100.00;98572.69;2632048;28;20339;-84
2022/10/08 04:44:27;;;;;;;13.75;9.10;;;;;;;10.21;100.00;98572.88;2632500;28;20056;-84
2022/10/08 04:45:44;;;;;;;13.20;8.98;;;;;;;10.17;100.00;98582.53;2622434;28;20050;-84
2022/10/08 04:47:00;;;;;;;18.33;9.77;;;;;;;10.21;100.00;98580.72;2626536;28;20144;-85
2022/10/08 04:48:15;;;;;;;26.02;10.25;;;;;;;10.38;100.00;98587.28;2633259;28;20513;-85
2022/10/08 04:49:31;;;;;;;37.55;10.48;;;;;;;10.16;100.00;98586.06;2632117;28;20052;-84
2022/10/08 04:50:46;;;;;;;54.03;11.57;;;;;;;9.91;100.00;98590.97;2632706;28;20051;-88
2022/10/08 04:52:02;;;;;;;27.13;10.15;;;;;;;9.77;100.00;98593.03;2633685;28;20063;-85
2022/10/08 04:53:18;;;;;;;60.05;11.15;;;;;;;9.72;100.00;98586.19;2631878;28;20113;-85
2022/10/08 04:54:33;;;;;;;80.03;12.55;;;;;;;9.84;100.00;98579.81;2633539;28;20415;-86
2022/10/08 04:55:49;;;;;;;48.17;10.02;;;;;;;9.77;100.00;98583.47;2632200;28;20440;-85
2022/10/08 04:57:04;;;;;;;51.13;11.40;;;;;;;9.91;100.00;98583.13;2632579;28;20425;-86
2022/10/08 04:58:21;;;;;;;55.08;11.50;;;;;;;9.64;100.00;98577.66;2631164;28;20044;-84
2022/10/08 04:59:37;;;;;;;54.47;10.80;;;;;;;9.74;100.00;98584.38;2633080;28;20134;-89
2022/10/08 05:00:52;;;;;;;25.63;10.77;;;;;;;9.81;100.00;98587.72;2633967;28;20046;-86
2022/10/08 05:02:08;;;;;;;25.88;10.60;;;;;;;9.71;100.00;98596.69;2632738;28;20052;-84
2022/10/08 05:03:24;;;;;;;29.95;10.30;;;;;;;9.95;100.00;98590.03;2633840;28;20091;-85
2022/10/08 05:04:39;;;;;;;31.42;10.35;;;;;;;10.13;100.00;98583.53;2632704;28;20258;-84
2022/10/08 05:05:55;;;;;;;19.58;10.20;;;;;;;10.11;100.00;98580.06;2632471;28;20417;-84
2022/10/08 05:07:10;;;;;;;33.25;11.27;;;;;;;10.11;100.00;98585.28;2631790;28;20052;-84
2022/10/08 05:08:27;;;;;;;23.15;10.32;;;;;;;10.02;100.00;98578.53;2631689;28;20976;-84
2022/10/08 05:09:43;;;;;;;27.00;10.48;;;;;;;10.03;100.00;98585.47;2632724;28;20047;-85
2022/10/08 05:10:59;;;;;;;35.28;10.15;;;;;;;10.04;100.00;98581.94;2633325;28;20055;-84
2022/10/08 05:12:20;;;;;;;22.05;9.98;;;;;;;10.04;100.00;98587.19;2634971;28;20420;-84
2022/10/08 05:13:42;;;;;;;15.00;9.82;;;;;;;10.08;100.00;98580.13;2632134;28;20048;-86
2022/10/08 05:14:57;;;;;;;15.00;9.95;;;;;;;10.10;100.00;98575.72;2632179;28;20487;-84
2022/10/08 05:16:13;;;;;;;15.30;9.93;;;;;;;10.09;100.00;98578.38;2633570;28;20044;-85
2022/10/08 05:17:31;;;;;;;12.85;8.95;;;;;;;9.85;100.00;98572.81;2631356;28;20411;-85
2022/10/08 05:18:49;;;;;;;14.02;8.80;;;;;;;9.94;100.00;98585.69;2633727;28;20473;-84
2022/10/08 05:20:05;;;;;;;14.63;9.68;;;;;;;10.00;100.00;98577.69;2631435;28;20048;-84
2022/10/08 05:21:24;;;;;;;14.27;9.52;;;;;;;10.18;100.00;98580.75;2632895;28;20550;-85
2022/10/08 05:22:40;;;;;;;13.20;9.23;;;;;;;10.10;100.00;98574.88;2631027;28;20086;-81
2022/10/08 05:24:05;;;;;;;16.45;9.52;;;;;;;10.31;100.00;98569.09;2633033;28;20051;-84
2022/10/08 05:25:21;;;;;;;15.48;9.60;;;;;;;10.35;100.00;98574.28;2631601;28;20100;-85
2022/10/08 05:26:39;;;;;;;12.23;9.02;;;;;;;10.35;100.00;98576.91;2632821;28;20047;-85
2022/10/08 05:27:54;;;;;;;13.85;9.57;;;;;;;10.30;100.00;98571.78;2632760;28;20576;-83
2022/10/08 05:29:13;;;;;;;13.90;8.88;;;;;;;10.30;100.00;98580.47;2631740;28;20039;-86
2022/10/08 05:30:29;;;;;;;19.95;9.73;;;;;;;10.31;100.00;98578.72;2634135;28;20071;-83
2022/10/08 05:31:45;;;;;;;15.85;9.98;;;;;;;10.26;100.00;98581.44;2631332;28;20052;-83
2022/10/08 05:33:00;;;;;;;34.10;11.30;;;;;;;10.29;100.00;98583.97;2631781;28;20509;-83
2022/10/08 05:34:16;;;;;;;22.52;10.65;;;;;;;10.10;100.00;98580.94;2632816;28;20040;-85
2022/10/08 05:35:37;;;;;;;20.98;11.32;;;;;;;10.00;100.00;98587.31;2632659;28;20047;-83
2022/10/08 05:36:52;;;;;;;17.95;10.65;;;;;;;10.03;100.00;98580.22;2632407;28;20055;-87
2022/10/08 05:38:08;;;;;;;20.95;11.80;;;;;;;10.02;100.00;98575.91;2632062;28;20485;-88
2022/10/08 05:39:23;;;;;;;20.33;12.13;;;;;;;10.11;100.00;98581.81;2631917;28;20055;-86
2022/10/08 05:40:39;;;;;;;26.50;12.40;;;;;;;10.27;100.00;98580.56;2631045;28;20410;-83
2022/10/08 05:41:54;;;;;;;18.85;12.50;;;;;;;10.25;100.00;98578.84;2631780;28;20052;-83
2022/10/08 05:43:10;;;;;;;18.05;11.13;;;;;;;10.28;100.00;98582.28;2629318;28;20052;-82
2022/10/08 05:44:26;;;;;;;14.90;10.30;;;;;;;10.32;100.00;98583.91;2632467;28;20090;-83
2022/10/08 05:45:49;;;;;;;14.25;9.60;;;;;;;10.28;100.00;98592.75;2631381;28;20079;-83
2022/10/08 05:47:04;;;;;;;14.38;9.23;;;;;;;10.25;100.00;98591.94;2630849;28;20047;-83
2022/10/08 05:48:20;;;;;;;13.75;9.32;;;;;;;10.17;100.00;98593.00;2630241;28;20058;-88
2022/10/08 05:49:36;;;;;;;12.95;9.13;;;;;;;10.26;100.00;98596.28;2631387;28;20105;-85
2022/10/08 05:50:52;;;;;;;14.05;8.85;;;;;;;10.33;100.00;98597.88;2633954;28;20477;-83
2022/10/08 05:52:07;;;;;;;14.80;9.63;;;;;;;10.16;100.00;98593.91;2631640;28;20068;-82
2022/10/08 05:53:23;;;;;;;11.98;8.52;;;;;;;10.41;100.00;98593.34;2631026;28;20850;-82
2022/10/08 05:54:39;;;;;;;13.23;8.27;;;;;;;10.38;100.00;98597.75;2633236;28;20056;-82
2022/10/08 05:56:02;;;;;;;11.07;8.25;;;;;;;10.45;100.00;98599.34;2631303;28;20052;-84
2022/10/08 05:57:17;;;;;;;12.75;8.93;;;;;;;10.47;100.00;98599.31;2629977;28;20131;-83
2022/10/08 05:58:35;;;;;;;13.52;9.05;;;;;;;10.51;100.00;98595.72;2631692;28;20059;-82
2022/10/08 05:59:51;;;;;;;14.00;9.65;;;;;;;10.68;100.00;98605.75;2631577;28;20051;-82
2022/10/08 06:01:28;;;;;;;13.38;9.27;;;;;;;10.60;100.00;98600.72;2630280;28;20405;-83
2022/10/08 06:02:43;;;;;;;13.82;9.23;;;;;;;10.69;100.00;98603.13;2632060;28;20517;-84
2022/10/08 06:04:02;;;;;;;14.80;9.68;;;;;;;10.72;100.00;98604.78;2630357;28;20368;-83
2022/10/08 06:05:17;;;;;;;13.27;9.82;;;;;;;10.69;100.00;98610.97;2630662;28;20048;-83